createdAt,value
2023-05-12T00:00:13.297Z,100387.91
2023-05-12T00:02:42.477Z,100388.71
2023-05-12T00:05:09.609Z,100380.98
2023-05-12T00:07:36.775Z,100384.38
2023-05-12T00:10:03.893Z,100385.55
2023-05-12T00:12:30.801Z,100382.41
2023-05-12T00:14:57.696Z,100385.09
2023-05-12T00:17:24.564Z,100386.10
2023-05-12T00:19:52.069Z,100381.94
2023-05-12T00:22:19.069Z,100388.77
2023-05-12T00:24:46.054Z,100386.32
2023-05-12T00:27:14.145Z,100388.52
2023-05-12T00:29:41.137Z,100390.68
2023-05-12T00:32:08.462Z,100388.70
2023-05-12T00:34:35.392Z,100391.68
2023-05-12T00:37:02.415Z,100390.21
2023-05-12T00:39:29.692Z,100391.46
2023-05-12T00:41:57.490Z,100392.04
2023-05-12T00:44:24.774Z,100396.23
2023-05-12T00:46:51.939Z,100395.30
2023-05-12T00:49:19.453Z,100396.71
2023-05-12T00:51:46.548Z,100398.83
2023-05-12T00:54:13.481Z,100399.37
2023-05-12T00:56:40.667Z,100400.12
2023-05-12T00:59:09.043Z,100400.52
2023-05-12T01:01:39.402Z,100404.84
2023-05-12T01:04:06.413Z,100402.54
2023-05-12T01:06:39.032Z,100402.66
2023-05-12T01:09:06.942Z,100401.41
2023-05-12T01:11:33.858Z,100406.85
2023-05-12T01:14:00.793Z,100405.45
2023-05-12T01:16:30.858Z,100406.10
2023-05-12T01:18:58.070Z,100403.65
2023-05-12T01:21:25.001Z,100407.37
2023-05-12T01:23:58.576Z,100413.49
2023-05-12T01:26:29.986Z,100412.40
2023-05-12T01:28:57.088Z,100409.94
2023-05-12T01:31:25.247Z,100411.71
2023-05-12T01:33:52.304Z,100409.92
2023-05-12T01:36:19.397Z,100412.25
2023-05-12T01:38:46.451Z,100413.01
2023-05-12T01:41:13.416Z,100413.23
2023-05-12T01:43:40.273Z,100416.23
2023-05-12T01:46:07.275Z,100413.75
2023-05-12T01:48:34.563Z,100409.98
2023-05-12T01:51:01.836Z,100411.04
2023-05-12T01:53:28.839Z,100406.66
2023-05-12T01:55:55.827Z,100410.87
2023-05-12T01:58:23.781Z,100411.79
2023-05-12T02:00:50.870Z,100413.75
2023-05-12T02:03:18.174Z,100412.44
2023-05-12T02:05:45.238Z,100410.55
2023-05-12T02:08:12.486Z,100408.85
2023-05-12T02:10:39.434Z,100411.00
2023-05-12T02:13:07.139Z,100412.80
2023-05-12T02:15:34.625Z,100413.23
2023-05-12T02:18:01.639Z,100411.65
2023-05-12T02:20:29.845Z,100414.52
2023-05-12T02:22:57.104Z,100412.05
2023-05-12T02:25:24.031Z,100415.79
2023-05-12T02:27:51.000Z,100412.88
2023-05-12T02:30:18.306Z,100414.21
2023-05-12T02:32:46.590Z,100409.91
2023-05-12T02:35:13.845Z,100411.92
2023-05-12T02:37:40.914Z,100407.42
2023-05-12T02:40:08.615Z,100409.48
2023-05-12T02:42:38.343Z,100408.11
2023-05-12T02:45:06.001Z,100403.70
2023-05-12T02:47:33.988Z,100406.17
2023-05-12T02:50:00.998Z,100410.69
2023-05-12T02:52:28.009Z,100409.25
2023-05-12T02:54:56.293Z,100415.52
2023-05-12T02:57:23.389Z,100414.48
2023-05-12T02:59:50.262Z,100417.89
2023-05-12T03:02:17.347Z,100420.23
2023-05-12T03:04:44.355Z,100422.22
2023-05-12T03:07:11.296Z,100423.60
2023-05-12T03:09:38.433Z,100423.30
2023-05-12T03:12:05.723Z,100423.73
2023-05-12T03:14:32.704Z,100424.25
2023-05-12T03:16:59.796Z,100426.48
2023-05-12T03:19:28.030Z,100429.55
2023-05-12T03:21:54.958Z,100428.65
2023-05-12T03:24:22.047Z,100430.92
2023-05-12T03:26:49.028Z,100435.23
2023-05-12T03:29:16.007Z,100435.25
2023-05-12T03:31:43.458Z,100427.45
2023-05-12T03:34:10.632Z,100430.59
2023-05-12T03:36:37.585Z,100433.79
2023-05-12T03:39:04.926Z,100436.80
2023-05-12T03:41:33.155Z,100437.59
2023-05-12T03:44:00.161Z,100435.45
2023-05-12T03:46:27.284Z,100435.71
2023-05-12T03:48:54.385Z,100436.98
2023-05-12T03:51:21.274Z,100438.44
2023-05-12T03:53:51.857Z,100437.16
2023-05-12T03:56:19.595Z,100433.14
2023-05-12T03:58:47.764Z,100434.48
2023-05-12T04:01:15.858Z,100430.66
2023-05-12T04:03:43.432Z,100432.67
2023-05-12T04:06:10.674Z,100430.59
2023-05-12T04:08:39.011Z,100432.83
2023-05-12T04:11:07.526Z,100430.39
2023-05-12T04:13:34.888Z,100432.38
2023-05-12T04:16:02.001Z,100431.23
2023-05-12T04:18:29.186Z,100433.84
2023-05-12T04:20:56.190Z,100437.67
2023-05-12T04:23:23.242Z,100437.55
2023-05-12T04:25:50.267Z,100436.43
2023-05-12T04:28:17.244Z,100440.05
2023-05-12T04:30:44.308Z,100440.92
2023-05-12T04:33:11.307Z,100442.98
2023-05-12T04:35:38.741Z,100445.60
2023-05-12T04:38:05.923Z,100449.09
2023-05-12T04:40:34.859Z,100448.93
2023-05-12T04:43:03.256Z,100447.23
2023-05-12T04:45:31.248Z,100444.67
2023-05-12T04:47:58.301Z,100442.10
2023-05-12T04:50:25.327Z,100444.16
2023-05-12T04:52:52.342Z,100441.70
2023-05-12T04:55:19.457Z,100441.84
2023-05-12T04:57:46.758Z,100435.95
2023-05-12T05:00:15.098Z,100434.66
2023-05-12T05:02:43.678Z,100439.77
2023-05-12T05:05:10.939Z,100437.74
2023-05-12T05:07:38.182Z,100439.02
2023-05-12T05:10:05.964Z,100438.70
2023-05-12T05:12:33.416Z,100442.21
2023-05-12T05:15:00.381Z,100438.98
2023-05-12T05:17:28.283Z,100440.20
2023-05-12T05:19:59.063Z,100438.13
2023-05-12T05:22:29.510Z,100440.17
2023-05-12T05:24:56.775Z,100443.09
2023-05-12T05:27:23.636Z,100445.64
2023-05-12T05:29:51.057Z,100443.01
2023-05-12T05:32:18.470Z,100445.59
2023-05-12T05:34:45.602Z,100445.35
2023-05-12T05:37:13.076Z,100444.08
2023-05-12T05:39:40.398Z,100440.70
2023-05-12T05:42:07.373Z,100439.12
2023-05-12T05:44:35.164Z,100439.58
2023-05-12T05:47:03.295Z,100437.20
2023-05-12T05:49:30.889Z,100437.80
2023-05-12T05:51:59.097Z,100440.92
2023-05-12T05:54:26.174Z,100444.45
2023-05-12T05:56:53.086Z,100447.02
2023-05-12T05:59:20.136Z,100441.05
2023-05-12T06:01:47.116Z,100441.41
2023-05-12T06:04:14.130Z,100441.86
2023-05-12T06:06:41.414Z,100438.55
2023-05-12T06:09:09.744Z,100439.05
2023-05-12T06:11:36.682Z,100439.92
2023-05-12T06:14:03.519Z,100441.86
2023-05-12T06:16:30.501Z,100436.31
2023-05-12T06:18:57.574Z,100437.52
2023-05-12T06:21:24.650Z,100438.54
2023-05-12T06:23:52.108Z,100438.83
2023-05-12T06:26:19.034Z,100441.34
2023-05-12T06:28:46.004Z,100443.50
2023-05-12T06:31:12.849Z,100445.05
2023-05-12T06:33:39.780Z,100444.20
2023-05-12T06:36:07.108Z,100443.83
2023-05-12T06:38:33.928Z,100442.61
2023-05-12T06:41:00.799Z,100444.06
2023-05-12T06:43:27.824Z,100445.09
2023-05-12T06:45:57.060Z,100446.11
2023-05-12T06:48:24.527Z,100440.61
2023-05-12T06:50:51.598Z,100443.05
2023-05-12T06:53:18.510Z,100443.02
2023-05-12T06:55:46.511Z,100444.27
2023-05-12T06:58:13.440Z,100441.76
2023-05-12T07:00:40.454Z,100443.36
2023-05-12T07:03:10.504Z,100441.92
2023-05-12T07:05:37.887Z,100440.01
2023-05-12T07:08:05.386Z,100444.92
2023-05-12T07:10:33.442Z,100446.73
2023-05-12T07:13:00.464Z,100446.27
2023-05-12T07:15:27.276Z,100446.79
2023-05-12T07:17:55.962Z,100445.44
2023-05-12T07:20:23.059Z,100448.02
2023-05-12T07:22:51.696Z,100447.73
2023-05-12T07:25:19.006Z,100447.64
2023-05-12T07:27:46.193Z,100446.08
2023-05-12T07:30:13.750Z,100451.81
2023-05-12T07:32:40.699Z,100452.21
2023-05-12T07:35:08.137Z,100448.99
2023-05-12T07:37:35.344Z,100446.82
2023-05-12T07:40:02.413Z,100447.52
2023-05-12T07:42:29.227Z,100444.39
2023-05-12T07:44:56.120Z,100440.73
2023-05-12T07:47:23.000Z,100442.20
2023-05-12T07:49:49.933Z,100445.82
2023-05-12T07:52:16.900Z,100442.59
2023-05-12T07:54:43.733Z,100434.30
2023-05-12T07:57:11.269Z,100441.04
2023-05-12T07:59:38.147Z,100438.17
2023-05-12T08:02:05.038Z,100436.54
2023-05-12T08:04:32.029Z,100439.80
2023-05-12T08:06:59.384Z,100440.91
2023-05-12T08:09:26.242Z,100440.50
2023-05-12T08:11:53.050Z,100443.45
2023-05-12T08:14:20.006Z,100443.21
2023-05-12T08:16:47.085Z,100443.84
2023-05-12T08:19:14.096Z,100445.39
2023-05-12T08:21:40.971Z,100444.24
2023-05-12T08:24:07.796Z,100438.72
2023-05-12T08:26:36.720Z,100434.38
2023-05-12T08:29:04.873Z,100438.70
2023-05-12T08:31:32.253Z,100440.52
2023-05-12T08:34:09.024Z,100431.84
2023-05-12T08:36:39.214Z,100428.14
2023-05-12T08:39:06.136Z,100431.69
2023-05-12T08:42:03.461Z,100431.42
2023-05-12T08:44:31.406Z,100431.34
2023-05-12T08:46:58.355Z,100429.36
2023-05-12T08:49:25.768Z,100428.01
2023-05-12T08:51:57.948Z,100428.58
2023-05-12T08:54:27.146Z,100424.20
2023-05-12T08:59:24.186Z,100420.52
2023-05-12T09:01:51.208Z,100417.97
2023-05-12T09:04:18.414Z,100419.29
2023-05-12T09:06:45.598Z,100417.23
2023-05-12T09:09:16.853Z,100420.10
2023-05-12T09:11:43.962Z,100412.00
2023-05-12T09:14:22.759Z,100411.91
2023-05-12T09:16:50.921Z,100421.27
2023-05-12T09:19:21.376Z,100419.48
2023-05-12T09:21:48.578Z,100411.38
2023-05-12T09:24:15.649Z,100411.45
2023-05-12T09:26:49.594Z,100412.29
2023-05-12T09:29:27.892Z,100409.41
2023-05-12T09:31:58.839Z,100410.27
2023-05-12T09:34:32.867Z,100407.84
2023-05-12T09:37:05.293Z,100405.14
2023-05-12T09:39:32.647Z,100405.48
2023-05-12T09:41:59.748Z,100399.08
2023-05-12T09:44:26.937Z,100400.80
2023-05-12T09:46:53.761Z,100405.70
2023-05-12T09:49:28.148Z,100401.93
2023-05-12T09:52:00.896Z,100400.77
2023-05-12T09:54:29.883Z,100397.03
2023-05-12T09:57:01.515Z,100393.25
2023-05-12T09:59:31.639Z,100396.52
2023-05-12T10:02:00.347Z,100391.63
2023-05-12T10:04:32.916Z,100396.30
2023-05-12T10:06:59.841Z,100388.70
2023-05-12T10:09:31.666Z,100384.30
2023-05-12T10:11:58.517Z,100388.15
2023-05-12T10:14:25.420Z,100390.52
2023-05-12T10:16:52.343Z,100385.49
2023-05-12T10:19:19.172Z,100384.81
2023-05-12T10:21:48.959Z,100386.27
2023-05-12T10:24:16.946Z,100390.61
2023-05-12T10:26:44.868Z,100393.88
2023-05-12T10:29:12.520Z,100390.97
2023-05-12T10:31:39.638Z,100380.40
2023-05-12T10:34:07.078Z,100377.30
2023-05-12T10:36:48.222Z,100371.06
2023-05-12T10:39:16.334Z,100375.01
2023-05-12T10:41:43.211Z,100379.98
2023-05-12T10:44:13.767Z,100374.85
2023-05-12T10:46:40.740Z,100370.45
2023-05-12T10:49:13.049Z,100365.23
2023-05-12T10:51:43.245Z,100367.34
2023-05-12T10:54:11.165Z,100359.36
2023-05-12T10:56:41.189Z,100358.27
2023-05-12T10:59:17.987Z,100360.42
2023-05-12T11:02:09.120Z,100369.06
2023-05-12T11:04:49.014Z,100365.16
2023-05-12T11:07:17.091Z,100358.35
2023-05-12T11:12:16.978Z,100360.10
2023-05-12T11:14:45.054Z,100358.08
2023-05-12T11:17:12.298Z,100356.80
2023-05-12T11:19:40.176Z,100356.84
2023-05-12T11:22:09.499Z,100352.80
2023-05-12T11:24:37.144Z,100350.02
2023-05-12T11:27:04.763Z,100351.91
2023-05-12T11:29:31.889Z,100350.59
2023-05-12T11:32:00.727Z,100351.64
2023-05-12T11:34:28.040Z,100348.00
2023-05-12T11:36:56.090Z,100345.20
2023-05-12T11:39:24.700Z,100342.66
2023-05-12T11:41:56.594Z,100341.19
2023-05-12T11:44:29.528Z,100335.58
2023-05-12T11:47:01.163Z,100333.41
2023-05-12T11:49:29.869Z,100332.38
2023-05-12T11:51:57.544Z,100327.98
2023-05-12T11:54:25.344Z,100329.73
2023-05-12T11:56:54.025Z,100331.33
2023-05-12T11:59:28.511Z,100336.60
2023-05-12T12:01:55.841Z,100332.23
2023-05-12T12:04:36.490Z,100329.48
2023-05-12T12:07:05.550Z,100327.86
2023-05-12T12:09:40.970Z,100328.66
2023-05-12T12:12:09.046Z,100324.90
2023-05-12T12:14:38.083Z,100316.91
2023-05-12T12:17:05.261Z,100318.48
2023-05-12T12:19:32.039Z,100313.95
2023-05-12T12:21:59.327Z,100313.86
2023-05-12T12:24:26.361Z,100316.36
2023-05-12T12:26:53.215Z,100314.54
2023-05-12T12:29:20.176Z,100313.36
2023-05-12T12:31:47.180Z,100308.27
2023-05-12T12:34:14.233Z,100307.40
2023-05-12T12:36:41.398Z,100305.01
2023-05-12T12:39:08.217Z,100300.28
2023-05-12T12:41:35.027Z,100300.64
2023-05-12T12:44:01.843Z,100299.83
2023-05-12T12:46:28.891Z,100303.85
2023-05-12T12:48:57.417Z,100299.94
2023-05-12T12:51:26.851Z,100292.20
2023-05-12T12:53:59.619Z,100291.16
2023-05-12T12:56:26.632Z,100285.89
2023-05-12T12:58:53.902Z,100288.19
2023-05-12T13:01:20.773Z,100287.80
2023-05-12T13:03:47.743Z,100284.54
2023-05-12T13:06:14.783Z,100285.33
2023-05-12T13:08:42.955Z,100282.70
2023-05-12T13:11:09.873Z,100285.54
2023-05-12T13:13:37.709Z,100288.15
2023-05-12T13:16:04.874Z,100285.70
2023-05-12T13:18:31.889Z,100287.39
2023-05-12T13:20:59.272Z,100289.36
2023-05-12T13:23:26.250Z,100288.79
2023-05-12T13:25:53.269Z,100291.47
2023-05-12T13:28:20.200Z,100288.63
2023-05-12T13:30:47.070Z,100291.16
2023-05-12T13:33:13.978Z,100288.61
2023-05-12T13:35:41.431Z,100288.64
2023-05-12T13:38:10.179Z,100284.59
2023-05-12T13:40:37.383Z,100286.02
2023-05-12T13:43:04.373Z,100281.81
2023-05-12T13:45:31.578Z,100276.84
2023-05-12T13:47:58.472Z,100276.28
2023-05-12T13:50:25.327Z,100274.33
2023-05-12T13:52:52.288Z,100274.63
2023-05-12T13:55:21.732Z,100273.19
2023-05-12T13:57:49.355Z,100272.77
2023-05-12T14:00:19.493Z,100265.23
2023-05-12T14:02:46.948Z,100267.95
2023-05-12T14:05:14.600Z,100268.45
2023-05-12T14:07:42.738Z,100265.41
2023-05-12T14:10:10.556Z,100263.71
2023-05-12T14:12:37.612Z,100259.23
2023-05-12T14:15:21.857Z,100262.74
2023-05-12T14:17:52.653Z,100259.67
2023-05-12T14:20:19.899Z,100260.11
2023-05-12T14:22:46.701Z,100256.50
2023-05-12T14:25:13.649Z,100256.23
2023-05-12T14:27:40.667Z,100257.97
2023-05-12T14:30:09.209Z,100255.88
2023-05-12T14:32:36.119Z,100253.39
2023-05-12T14:35:04.144Z,100253.81
2023-05-12T14:37:31.730Z,100259.48
2023-05-12T14:39:58.697Z,100260.86
2023-05-12T14:42:28.459Z,100261.61
2023-05-12T14:44:55.587Z,100256.84
2023-05-12T14:47:22.660Z,100260.78
2023-05-12T14:49:49.800Z,100261.38
2023-05-12T14:52:16.836Z,100262.13
2023-05-12T14:54:44.503Z,100263.64
2023-05-12T14:57:13.583Z,100262.61
2023-05-12T14:59:40.561Z,100264.36
2023-05-12T15:02:07.940Z,100268.02
2023-05-12T15:04:34.806Z,100267.71
2023-05-12T15:07:01.647Z,100265.22
2023-05-12T15:09:28.507Z,100262.04
2023-05-12T15:11:55.470Z,100264.03
2023-05-12T15:16:49.360Z,100264.49
2023-05-12T15:19:17.590Z,100261.98
2023-05-12T15:21:44.654Z,100264.85
2023-05-12T15:24:11.482Z,100262.84
2023-05-12T15:26:40.078Z,100263.09
2023-05-12T15:29:07.713Z,100258.40
2023-05-12T15:31:35.309Z,100258.70
2023-05-12T15:34:02.348Z,100255.83
2023-05-12T15:36:29.814Z,100254.61
2023-05-12T15:38:56.784Z,100252.18
2023-05-12T15:41:23.679Z,100253.23
2023-05-12T15:43:50.698Z,100251.82
2023-05-12T15:46:17.494Z,100253.73
2023-05-12T15:48:44.441Z,100254.31
2023-05-12T15:51:11.335Z,100255.59
2023-05-12T15:53:38.162Z,100255.64
2023-05-12T15:56:05.523Z,100256.60
2023-05-12T15:58:32.434Z,100258.77
2023-05-12T16:00:59.530Z,100260.23
2023-05-12T16:03:26.621Z,100258.19
2023-05-12T16:05:53.554Z,100260.83
2023-05-12T16:08:20.533Z,100262.60
2023-05-12T16:10:47.449Z,100258.85
2023-05-12T16:13:14.672Z,100260.48
2023-05-12T16:15:41.562Z,100255.66
2023-05-12T16:18:11.113Z,100260.09
2023-05-12T16:20:39.112Z,100259.82
2023-05-12T16:23:06.035Z,100257.67
2023-05-12T16:25:32.972Z,100260.18
2023-05-12T16:27:59.912Z,100258.42
2023-05-12T16:30:26.995Z,100260.33
2023-05-12T16:32:54.037Z,100258.73
2023-05-12T16:35:22.201Z,100266.24
2023-05-12T16:37:49.193Z,100263.66
2023-05-12T16:40:16.398Z,100269.54
2023-05-12T16:42:43.266Z,100269.80
2023-05-12T16:45:11.301Z,100270.40
2023-05-12T16:47:38.441Z,100270.77
2023-05-12T16:50:06.274Z,100269.93
2023-05-12T16:52:33.901Z,100277.80
2023-05-12T16:55:00.836Z,100277.10
2023-05-12T16:57:27.710Z,100277.13
2023-05-12T16:59:54.461Z,100277.87
2023-05-12T17:02:21.412Z,100278.61
2023-05-12T17:04:48.238Z,100283.42
2023-05-12T17:07:15.148Z,100285.07
2023-05-12T17:09:42.120Z,100285.16
2023-05-12T17:12:09.139Z,100284.22
2023-05-12T17:14:36.047Z,100286.60
2023-05-12T17:17:03.550Z,100287.40
2023-05-12T17:19:30.768Z,100291.00
2023-05-12T17:21:57.665Z,100290.42
2023-05-12T17:24:24.655Z,100288.61
2023-05-12T17:26:51.544Z,100286.79
2023-05-12T17:29:18.464Z,100293.17
2023-05-12T17:31:45.372Z,100291.88
2023-05-12T17:34:12.278Z,100297.20
2023-05-12T17:36:39.153Z,100298.47
2023-05-12T17:39:06.116Z,100301.00
2023-05-12T17:41:32.966Z,100299.05
2023-05-12T17:43:59.907Z,100301.57
2023-05-12T17:46:26.698Z,100298.18
2023-05-12T17:48:53.543Z,100301.04
2023-05-12T17:51:20.292Z,100303.05
2023-05-12T17:53:47.316Z,100302.96
2023-05-12T17:56:14.167Z,100306.19
2023-05-12T17:58:41.761Z,100304.89
2023-05-12T18:01:08.739Z,100309.50
2023-05-12T18:03:35.636Z,100307.16
2023-05-12T18:06:02.765Z,100310.89
2023-05-12T18:08:29.712Z,100315.29
2023-05-12T18:10:56.518Z,100316.40
2023-05-12T18:13:23.381Z,100318.38
2023-05-12T18:15:50.308Z,100322.80
2023-05-12T18:18:17.286Z,100323.40
2023-05-12T18:20:44.265Z,100323.81
2023-05-12T18:23:11.111Z,100320.75
2023-05-12T18:25:38.100Z,100325.67
2023-05-12T18:28:06.662Z,100327.63
2023-05-12T18:30:33.671Z,100332.36
2023-05-12T18:33:00.683Z,100337.79
2023-05-12T18:35:27.598Z,100337.31
2023-05-12T18:37:54.630Z,100341.16
2023-05-12T18:40:21.957Z,100344.33
2023-05-12T18:42:48.784Z,100348.33
2023-05-12T18:45:15.830Z,100350.42
2023-05-12T18:47:42.912Z,100351.48
2023-05-12T18:50:10.197Z,100350.45
2023-05-12T18:52:37.201Z,100349.79
2023-05-12T18:55:04.294Z,100347.70
2023-05-12T18:57:31.143Z,100346.69
2023-05-12T18:59:58.001Z,100350.16
2023-05-12T19:02:24.941Z,100351.73
2023-05-12T19:04:52.630Z,100353.13
2023-05-12T19:07:19.572Z,100353.66
2023-05-12T19:09:46.498Z,100355.23
2023-05-12T19:12:13.410Z,100358.89
2023-05-12T19:14:40.632Z,100354.22
2023-05-12T19:17:07.801Z,100351.63
2023-05-12T19:19:34.948Z,100347.31
2023-05-12T19:22:02.217Z,100343.17
2023-05-12T19:24:29.325Z,100340.23
2023-05-12T19:26:56.268Z,100339.52
2023-05-12T19:29:23.315Z,100338.48
2023-05-12T19:31:51.088Z,100336.38
2023-05-12T19:34:17.955Z,100333.41
2023-05-12T19:36:44.951Z,100334.45
2023-05-12T19:39:11.787Z,100335.66
2023-05-12T19:41:39.452Z,100333.06
2023-05-12T19:44:06.335Z,100336.02
2023-05-12T19:46:33.101Z,100334.97
2023-05-12T19:49:00.464Z,100335.68
2023-05-12T19:51:27.351Z,100333.95
2023-05-12T19:53:54.127Z,100334.14
2023-05-12T19:56:20.945Z,100333.09
2023-05-12T19:58:48.070Z,100329.46
2023-05-12T20:01:14.841Z,100331.03
2023-05-12T20:03:41.669Z,100327.23
2023-05-12T20:06:08.420Z,100327.24
2023-05-12T20:08:35.299Z,100324.64
2023-05-12T20:11:02.074Z,100321.70
2023-05-12T20:13:28.919Z,100324.48
2023-05-12T20:15:56.180Z,100325.52
2023-05-12T20:18:23.906Z,100327.09
2023-05-12T20:20:50.884Z,100331.94
2023-05-12T20:23:17.699Z,100327.11
2023-05-12T20:25:44.580Z,100330.75
2023-05-12T20:28:11.879Z,100334.90
2023-05-12T20:30:38.698Z,100331.42
2023-05-12T20:33:05.611Z,100338.67
2023-05-12T20:35:32.528Z,100335.21
2023-05-12T20:37:59.440Z,100332.44
2023-05-12T20:40:26.338Z,100334.34
2023-05-12T20:42:53.256Z,100337.79
2023-05-12T20:45:20.508Z,100337.79
2023-05-12T20:47:47.655Z,100340.20
2023-05-12T20:50:15.280Z,100345.21
2023-05-12T20:52:42.288Z,100347.45
2023-05-12T20:55:09.531Z,100355.08
2023-05-12T20:57:37.893Z,100360.77
2023-05-12T21:00:05.505Z,100365.44
2023-05-12T21:02:32.383Z,100362.65
2023-05-12T21:04:59.285Z,100356.74
2023-05-12T21:07:26.140Z,100358.14
2023-05-12T21:09:52.939Z,100356.92
2023-05-12T21:12:19.827Z,100358.48
2023-05-12T21:14:46.723Z,100356.91
2023-05-12T21:17:13.512Z,100354.48
2023-05-12T21:19:40.438Z,100350.52
2023-05-12T21:22:07.533Z,100348.94
2023-05-12T21:24:34.518Z,100349.80
2023-05-12T21:27:02.191Z,100354.45
2023-05-12T21:29:29.146Z,100356.69
2023-05-12T21:31:56.026Z,100356.87
2023-05-12T21:34:22.902Z,100356.34
2023-05-12T21:36:49.953Z,100355.11
2023-05-12T21:39:17.114Z,100357.85
2023-05-12T21:41:43.951Z,100361.96
2023-05-12T21:44:11.457Z,100360.89
2023-05-12T21:46:38.666Z,100359.46
2023-05-12T21:49:05.535Z,100359.42
2023-05-12T21:51:33.305Z,100360.61
2023-05-12T21:54:00.240Z,100361.27
2023-05-12T21:56:27.030Z,100361.42
2023-05-12T21:58:53.888Z,100357.22
2023-05-12T22:01:20.713Z,100359.77
2023-05-12T22:03:47.549Z,100357.64
2023-05-12T22:06:14.359Z,100360.39
2023-05-12T22:08:41.249Z,100359.13
2023-05-12T22:11:08.123Z,100354.46
2023-05-12T22:13:35.108Z,100352.57
2023-05-12T22:16:04.122Z,100356.54
2023-05-12T22:18:31.783Z,100360.48
2023-05-12T22:20:58.973Z,100358.56
2023-05-12T22:23:25.908Z,100362.32
2023-05-12T22:25:52.764Z,100363.35
2023-05-12T22:28:19.600Z,100366.27
2023-05-12T22:30:46.406Z,100364.86
2023-05-12T22:33:13.182Z,100364.83
2023-05-12T22:35:39.990Z,100367.54
2023-05-12T22:38:07.003Z,100363.70
2023-05-12T22:40:33.887Z,100362.85
2023-05-12T22:43:00.730Z,100364.92
2023-05-12T22:45:27.612Z,100362.82
2023-05-12T22:47:54.821Z,100362.25
2023-05-12T22:50:22.049Z,100360.16
2023-05-12T22:52:49.146Z,100357.54
2023-05-12T22:55:16.010Z,100359.23
2023-05-12T22:57:45.438Z,100358.01
2023-05-12T23:00:12.719Z,100362.66
2023-05-12T23:02:39.570Z,100359.33
2023-05-12T23:05:06.871Z,100359.83
2023-05-12T23:07:33.746Z,100362.23
2023-05-12T23:10:00.552Z,100358.75
2023-05-12T23:12:27.464Z,100358.21
2023-05-12T23:14:54.374Z,100358.55
2023-05-12T23:17:21.174Z,100353.89
2023-05-12T23:19:48.118Z,100354.58
2023-05-12T23:22:15.191Z,100355.08
2023-05-12T23:24:42.272Z,100360.61
2023-05-12T23:27:09.051Z,100357.48
2023-05-12T23:29:35.961Z,100360.92
2023-05-12T23:32:03.231Z,100359.50
2023-05-12T23:34:30.089Z,100364.11
2023-05-12T23:36:56.943Z,100362.04
2023-05-12T23:39:23.831Z,100364.59
2023-05-12T23:41:50.777Z,100365.09
2023-05-12T23:44:17.714Z,100366.46
2023-05-12T23:46:44.624Z,100365.76
2023-05-12T23:49:11.607Z,100365.08
2023-05-12T23:51:38.472Z,100367.83
2023-05-12T23:54:05.282Z,100367.33
2023-05-12T23:56:32.078Z,100364.77
2023-05-12T23:58:58.919Z,100361.83
